createdAt,value
2023-03-20T00:01:36.555Z,54.50
2023-03-20T00:06:43.978Z,48.60
2023-03-20T00:11:53.552Z,47.70
2023-03-20T00:17:01.158Z,50.60
2023-03-20T00:22:10.226Z,38.00
2023-03-20T00:27:19.228Z,42.00
2023-03-20T00:32:27.128Z,37.50
2023-03-20T00:37:34.858Z,43.40
2023-03-20T00:42:43.612Z,36.00
2023-03-20T00:47:53.274Z,42.70
2023-03-20T00:53:01.790Z,38.30
2023-03-20T00:58:12.921Z,38.60
2023-03-20T01:03:23.542Z,40.60
2023-03-20T01:08:30.965Z,37.90
2023-03-20T01:13:40.012Z,34.50
2023-03-20T01:18:47.724Z,40.30
2023-03-20T01:23:55.307Z,42.20
2023-03-20T01:29:02.936Z,51.50
2023-03-20T01:34:12.597Z,47.40
2023-03-20T01:39:22.169Z,47.30
2023-03-20T01:44:32.869Z,51.60
2023-03-20T01:50:15.043Z,49.70
2023-03-20T01:55:25.245Z,52.10
2023-03-20T02:00:33.877Z,43.40
2023-03-20T02:05:44.264Z,43.00
2023-03-20T02:10:52.151Z,48.00
2023-03-20T02:16:07.718Z,38.20
2023-03-20T02:21:51.600Z,40.00
2023-03-20T02:27:11.366Z,41.40
2023-03-20T02:32:52.826Z,46.60
2023-03-20T02:38:39.640Z,42.40
2023-03-20T02:43:54.729Z,47.60
2023-03-20T02:49:08.522Z,51.00
2023-03-20T02:54:25.702Z,54.40
2023-03-20T02:59:41.004Z,36.50
2023-03-20T03:04:54.863Z,50.10
2023-03-20T03:10:07.413Z,42.20
2023-03-20T03:15:18.935Z,56.20
2023-03-20T03:20:30.475Z,46.80
2023-03-20T03:25:41.456Z,41.90
2023-03-20T03:30:50.191Z,45.30
2023-03-20T03:36:03.383Z,51.60
2023-03-20T03:41:25.583Z,49.30
2023-03-20T03:46:39.726Z,48.90
2023-03-20T03:51:52.383Z,57.30
2023-03-20T03:57:04.178Z,53.80
2023-03-20T04:02:13.113Z,56.70
2023-03-20T04:07:28.239Z,54.80
2023-03-20T04:12:39.730Z,52.90
2023-03-20T04:17:48.280Z,49.90
2023-03-20T04:22:56.329Z,61.30
2023-03-20T04:28:04.219Z,58.40
2023-03-20T04:33:11.854Z,55.50
2023-03-20T04:38:20.606Z,55.20
2023-03-20T04:43:28.684Z,56.00
2023-03-20T04:48:36.583Z,53.60
2023-03-20T04:53:44.097Z,59.40
2023-03-20T04:58:51.543Z,53.40
2023-03-20T05:04:01.329Z,55.30
2023-03-20T05:09:09.468Z,55.00
2023-03-20T05:14:17.002Z,57.60
2023-03-20T05:19:25.223Z,45.30
2023-03-20T05:24:32.945Z,40.10
2023-03-20T05:29:40.224Z,55.20
2023-03-20T05:34:47.651Z,65.50
2023-03-20T05:39:55.213Z,56.20
2023-03-20T05:45:02.545Z,62.10
2023-03-20T05:50:11.895Z,64.90
2023-03-20T05:55:19.783Z,64.80
2023-03-20T06:00:28.727Z,67.10
2023-03-20T06:05:37.277Z,55.10
2023-03-20T06:10:45.080Z,49.60
2023-03-20T06:15:52.838Z,50.60
2023-03-20T06:21:02.245Z,65.00
2023-03-20T06:26:10.265Z,50.80
2023-03-20T06:31:17.903Z,35.50
2023-03-20T06:36:25.807Z,47.80
2023-03-20T06:41:34.889Z,44.80
2023-03-20T06:46:42.798Z,39.80
2023-03-20T06:51:51.895Z,41.30
2023-03-20T06:56:59.840Z,37.50
2023-03-20T07:02:08.645Z,38.90
2023-03-20T07:07:16.224Z,35.40
2023-03-20T07:12:28.908Z,35.90
2023-03-20T07:17:36.290Z,33.40
2023-03-20T07:22:44.312Z,39.50
2023-03-20T07:27:51.577Z,40.30
2023-03-20T07:32:58.934Z,35.30
2023-03-20T07:44:14.704Z,26.90
2023-03-20T07:49:23.023Z,29.10
2023-03-20T07:54:30.553Z,23.40
2023-03-20T07:59:38.189Z,24.90
2023-03-20T08:04:46.723Z,21.10
2023-03-20T08:09:54.551Z,23.10
2023-03-20T08:15:02.344Z,21.70
2023-03-20T08:20:12.662Z,27.40
2023-03-20T08:25:20.479Z,22.30
2023-03-20T08:30:28.764Z,21.70
2023-03-20T08:35:37.002Z,27.70
2023-03-20T08:40:45.559Z,27.70
2023-03-20T08:45:53.714Z,25.30
2023-03-20T08:51:01.612Z,25.50
2023-03-20T08:56:11.564Z,27.80
2023-03-20T09:01:19.882Z,27.10
2023-03-20T09:06:27.324Z,23.50
2023-03-20T09:11:35.080Z,25.00
2023-03-20T09:16:43.024Z,23.70
2023-03-20T09:21:50.705Z,27.20
2023-03-20T09:26:58.986Z,25.70
2023-03-20T09:32:06.845Z,21.90
2023-03-20T09:37:14.789Z,29.60
2023-03-20T09:42:34.223Z,31.00
2023-03-20T09:47:51.500Z,24.20
2023-03-20T10:02:58.472Z,29.10
2023-03-20T10:08:06.594Z,31.70
2023-03-20T10:13:45.091Z,26.70
2023-03-20T10:18:58.039Z,21.60
2023-03-20T10:24:04.854Z,22.10
2023-03-20T10:29:23.139Z,24.40
2023-03-20T10:34:53.870Z,25.20
2023-03-20T10:40:14.517Z,26.10
2023-03-20T10:45:31.497Z,25.30
2023-03-20T10:50:42.147Z,26.50
2023-03-20T10:55:48.073Z,23.20
2023-03-20T11:00:57.102Z,28.20
2023-03-20T11:06:09.853Z,24.30
2023-03-20T11:11:21.231Z,27.80
2023-03-20T11:16:31.135Z,26.10
2023-03-20T11:21:46.565Z,24.80
2023-03-20T11:26:52.860Z,25.60
2023-03-20T11:32:07.411Z,22.90
2023-03-20T11:37:25.629Z,25.40
2023-03-20T11:42:31.466Z,28.30
2023-03-20T11:47:37.908Z,24.10
2023-03-20T11:52:44.093Z,28.00
2023-03-20T11:57:49.350Z,25.60
2023-03-20T12:02:54.060Z,24.90
2023-03-20T12:08:03.262Z,26.40
2023-03-20T12:13:14.802Z,24.30
2023-03-20T12:18:25.987Z,27.50
2023-03-20T12:23:35.305Z,26.60
2023-03-20T12:28:47.493Z,21.30
2023-03-20T12:33:57.183Z,15.80
2023-03-20T12:39:04.977Z,16.60
2023-03-20T12:44:26.704Z,18.60
2023-03-20T12:49:43.276Z,19.40
2023-03-20T12:55:06.002Z,15.90
2023-03-20T13:00:24.370Z,13.50
2023-03-20T13:05:37.346Z,13.70
2023-03-20T13:10:54.309Z,12.40
2023-03-20T13:16:09.958Z,12.60
2023-03-20T13:21:22.307Z,29.80
2023-03-20T13:26:37.043Z,33.80
2023-03-20T13:31:51.542Z,23.80
2023-03-20T13:37:22.369Z,21.70
2023-03-20T13:42:35.251Z,23.90
2023-03-20T13:47:40.426Z,30.40
2023-03-20T13:52:52.646Z,29.80
2023-03-20T13:58:15.514Z,82.90
2023-03-20T14:03:27.965Z,63.90
2023-03-20T14:08:36.824Z,31.70
2023-03-20T14:13:45.240Z,31.10
2023-03-20T14:19:03.919Z,32.80
2023-03-20T14:24:15.776Z,28.20
2023-03-20T14:29:35.102Z,31.50
2023-03-20T14:34:48.994Z,28.00
2023-03-20T14:44:31.981Z,33.40
2023-03-20T14:49:56.387Z,33.70
2023-03-20T14:55:32.067Z,60.90
2023-03-20T15:00:48.383Z,43.60
2023-03-20T15:06:00.693Z,37.20
2023-03-20T15:11:12.149Z,40.20
2023-03-20T15:16:27.408Z,45.40
2023-03-20T15:21:38.566Z,26.40
2023-03-20T15:26:46.287Z,38.70
2023-03-20T15:32:12.826Z,41.60
2023-03-20T15:37:25.164Z,40.70
2023-03-20T15:42:34.025Z,45.40
2023-03-20T15:47:43.750Z,37.80
2023-03-20T15:52:55.006Z,35.60
2023-03-20T15:58:04.388Z,43.10
2023-03-20T16:03:17.390Z,36.10
2023-03-20T16:08:27.354Z,41.50
2023-03-20T16:13:39.135Z,45.40
2023-03-20T16:18:49.110Z,43.80
2023-03-20T16:23:59.381Z,39.00
2023-03-20T16:29:08.437Z,42.10
2023-03-20T16:34:23.186Z,45.70
2023-03-20T16:39:32.635Z,46.70
2023-03-20T16:44:42.816Z,43.80
2023-03-20T16:50:12.253Z,46.50
2023-03-20T16:55:25.535Z,46.10
2023-03-20T17:00:42.913Z,43.70
2023-03-20T17:05:57.973Z,50.90
2023-03-20T17:11:12.038Z,47.80
2023-03-20T17:16:23.156Z,52.50
2023-03-20T17:21:31.766Z,50.80
2023-03-20T17:26:39.708Z,50.90
2023-03-20T17:31:47.626Z,49.90
2023-03-20T17:36:55.407Z,48.10
2023-03-20T17:42:02.735Z,55.00
2023-03-20T17:47:15.949Z,47.10
2023-03-20T17:52:26.318Z,56.60
2023-03-20T17:57:36.073Z,59.90
2023-03-20T18:02:43.785Z,49.30
2023-03-20T18:07:51.674Z,51.20
2023-03-20T18:12:59.722Z,57.60
2023-03-20T18:18:09.949Z,64.40
2023-03-20T18:23:18.433Z,62.50
2023-03-20T18:28:26.611Z,62.50
2023-03-20T18:33:34.579Z,64.10
2023-03-20T18:38:43.009Z,70.80
2023-03-20T18:43:51.942Z,64.20
2023-03-20T18:48:59.848Z,72.60
2023-03-20T18:54:07.967Z,64.60
2023-03-20T18:59:16.761Z,71.50
2023-03-20T19:04:27.029Z,71.30
2023-03-20T19:09:35.048Z,73.80
2023-03-20T19:14:43.546Z,69.70
2023-03-20T19:19:51.095Z,75.40
2023-03-20T19:24:58.845Z,76.50
2023-03-20T19:30:07.547Z,69.40
2023-03-20T19:35:50.312Z,78.80
2023-03-20T19:40:48.322Z,74.20
2023-03-20T19:45:58.804Z,79.70
2023-03-20T19:51:07.623Z,73.60
2023-03-20T19:56:17.820Z,74.10
2023-03-20T20:01:26.292Z,58.80
2023-03-20T20:06:35.176Z,57.50
2023-03-20T20:11:43.190Z,80.60
2023-03-20T20:16:52.859Z,82.00
2023-03-20T20:22:20.001Z,60.90
2023-03-20T20:27:31.731Z,85.90
2023-03-20T20:32:41.111Z,90.60
2023-03-20T20:45:18.413Z,93.00
2023-03-20T20:50:29.728Z,89.30
2023-03-20T20:55:37.545Z,87.20
2023-03-20T21:00:52.594Z,97.50
2023-03-20T21:06:07.410Z,105.00
2023-03-20T21:11:17.352Z,105.30
2023-03-20T21:16:25.724Z,103.80
2023-03-20T21:21:35.337Z,114.10
2023-03-20T21:26:43.576Z,102.20
2023-03-20T21:31:51.210Z,113.00
2023-03-20T21:37:00.214Z,118.00
2023-03-20T21:42:10.074Z,123.30
2023-03-20T21:53:45.925Z,122.50
2023-03-20T22:04:31.890Z,144.80
2023-03-20T22:09:52.096Z,150.90
2023-03-20T22:20:53.365Z,159.80
2023-03-20T22:31:48.063Z,136.00
2023-03-20T22:47:29.550Z,115.30
2023-03-20T22:52:48.499Z,94.20
2023-03-20T22:58:06.799Z,127.60
2023-03-20T23:03:29.509Z,125.60
2023-03-20T23:08:49.344Z,139.30
2023-03-20T23:14:01.009Z,126.40
2023-03-20T23:19:08.548Z,137.20
2023-03-20T23:24:17.189Z,132.50
2023-03-20T23:29:25.565Z,142.50
2023-03-20T23:34:34.235Z,138.20
2023-03-20T23:39:42.536Z,133.50
2023-03-20T23:44:56.299Z,132.30
2023-03-20T23:50:09.674Z,122.20
2023-03-20T23:55:21.791Z,134.10
